Time;durP1;ratioP1;P1;durP2;ratioP2;P2;SDS_P1;SDS_P2;PMS_P1;PMS_P2;Temp;Humidity;BMP_temperature;BMP_pressure;BME280_temperature;BME280_humidity;BME280_pressure;Samples;Min_cycle;Max_cycle;Signal;HPM_P1;HPM_P2
2023/03/03 00:01:05;;;;;;;51.75;24.35;;;;;;;5.93;100.00;100381.78;5040132;28;20505;-35
2023/03/03 00:03:30;;;;;;;48.47;24.58;;;;;;;6.02;100.00;100396.59;5038558;28;20028;-33
2023/03/03 00:05:57;;;;;;;52.83;25.73;;;;;;;6.02;100.00;100388.66;5030843;28;20041;-32
2023/03/03 00:08:23;;;;;;;64.18;27.35;;;;;;;5.98;100.00;100369.66;5030770;28;20033;-32
2023/03/03 00:10:48;;;;;;;47.60;24.75;;;;;;;6.02;100.00;100378.88;5030999;28;20034;-36
2023/03/03 00:13:19;;;;;;;51.95;25.35;;;;;;;6.04;100.00;100378.69;5030237;28;20032;-33
2023/03/03 00:15:45;;;;;;;47.15;23.38;;;;;;;6.06;100.00;100379.34;5030992;28;20045;-32
2023/03/03 00:18:16;;;;;;;57.78;26.25;;;;;;;5.98;100.00;100363.53;5030861;28;20026;-32
2023/03/03 00:20:48;;;;;;;56.05;25.90;;;;;;;5.94;100.00;100357.75;5030821;28;20120;-33
2023/03/03 00:23:36;;;;;;;47.78;23.30;;;;;;;5.98;100.00;100372.31;5042723;28;20035;-33
2023/03/03 00:26:12;;;;;;;49.08;23.45;;;;;;;6.02;100.00;100375.41;5050911;28;20041;-33
2023/03/03 00:28:48;;;;;;;53.00;23.65;;;;;;;6.15;100.00;100364.19;5049076;28;20036;-31
2023/03/03 00:31:34;;;;;;;51.58;24.90;;;;;;;6.06;100.00;100354.69;5048871;28;20098;-37
2023/03/03 00:34:26;;;;;;;49.25;22.85;;;;;;;6.10;100.00;100351.50;5049986;28;20025;-33
2023/03/03 00:36:54;;;;;;;42.30;23.27;;;;;;;6.11;100.00;100350.50;5049715;28;20421;-31
2023/03/03 00:39:36;;;;;;;43.72;21.15;;;;;;;6.04;100.00;100355.69;5050042;28;20071;-32
2023/03/03 00:42:10;;;;;;;48.58;22.40;;;;;;;5.84;100.00;100333.38;5049961;28;20053;-33
2023/03/03 00:44:41;;;;;;;40.90;22.33;;;;;;;5.90;100.00;100353.00;5050191;28;20059;-31
2023/03/03 00:47:27;;;;;;;51.60;24.85;;;;;;;5.98;100.00;100350.31;5050077;28;20037;-32
2023/03/03 00:49:59;;;;;;;46.42;24.42;;;;;;;5.80;100.00;100324.16;5049249;28;20069;-33
2023/03/03 00:52:27;;;;;;;45.85;22.90;;;;;;;5.73;100.00;100315.31;5048560;28;20116;-38
2023/03/03 00:54:53;;;;;;;53.67;25.20;;;;;;;5.81;100.00;100310.75;5049655;28;20029;-31
2023/03/03 00:57:18;;;;;;;47.38;24.70;;;;;;;5.98;100.00;100322.00;5049593;28;20051;-32
2023/03/03 00:59:44;;;;;;;54.42;24.20;;;;;;;5.89;100.00;100315.13;5049764;28;20485;-33
2023/03/03 01:02:09;;;;;;;51.72;25.60;;;;;;;5.85;100.00;100316.50;5049889;28;20078;-33
2023/03/03 01:04:34;;;;;;;49.90;24.10;;;;;;;5.80;100.00;100311.75;5048640;28;20594;-32
2023/03/03 01:07:00;;;;;;;45.50;24.33;;;;;;;5.81;100.00;100313.38;5048445;28;20472;-33
2023/03/03 01:09:25;;;;;;;48.95;24.17;;;;;;;5.84;100.00;100305.09;5049193;28;20029;-31
2023/03/03 01:11:51;;;;;;;48.90;25.30;;;;;;;5.79;100.00;100301.34;5049554;28;20033;-32
2023/03/03 01:14:19;;;;;;;46.45;24.45;;;;;;;5.83;100.00;100307.94;5049659;28;20029;-33
2023/03/03 01:16:44;;;;;;;50.95;24.75;;;;;;;5.91;100.00;100309.66;5049721;28;20033;-33
2023/03/03 01:19:10;;;;;;;53.15;25.15;;;;;;;5.99;100.00;100328.97;5049328;28;20025;-32
2023/03/03 01:21:35;;;;;;;49.50;24.73;;;;;;;5.94;100.00;100306.66;5049227;28;20116;-35
2023/03/03 01:24:01;;;;;;;52.15;25.45;;;;;;;5.99;100.00;100310.44;5049274;28;20431;-37
2023/03/03 01:26:29;;;;;;;51.80;26.50;;;;;;;5.95;100.00;100301.19;5049372;28;20108;-35
2023/03/03 01:28:54;;;;;;;;;;;;;;;6.08;100.00;100318.28;5049870;28;20029;-32
2023/03/03 01:31:20;;;;;;;45.42;22.77;;;;;;;5.80;100.00;100295.03;5049183;28;19959;-33
2023/03/03 01:33:45;;;;;;;47.17;23.05;;;;;;;5.84;100.00;100297.16;5049707;28;20037;-37
2023/03/03 01:36:11;;;;;;;46.38;22.73;;;;;;;5.92;100.00;100317.41;5049088;28;20028;-34
2023/03/03 01:38:37;;;;;;;43.33;22.23;;;;;;;5.91;100.00;100291.13;5049063;28;20102;-37
2023/03/03 01:41:03;;;;;;;47.28;23.00;;;;;;;5.99;100.00;100310.44;5049132;28;20032;-35
2023/03/03 01:43:31;;;;;;;44.60;22.27;;;;;;;5.93;100.00;100292.59;5048953;28;20048;-32
2023/03/03 01:45:56;;;;;;;49.65;23.42;;;;;;;6.03;100.00;100298.47;5048998;28;20094;-36
2023/03/03 01:48:36;;;;;;;45.88;23.77;;;;;;;5.94;100.00;100307.47;5049137;28;20444;-34
2023/03/03 01:51:25;;;;;;;44.30;21.90;;;;;;;5.91;100.00;100299.91;5048853;28;20017;-33
2023/03/03 01:53:51;;;;;;;;;;;;;;;5.91;100.00;100305.19;5049645;28;20036;-34
2023/03/03 01:56:17;;;;;;;43.30;23.27;;;;;;;5.81;100.00;100279.00;5048973;28;19923;-33
2023/03/03 01:58:51;;;;;;;50.45;24.30;;;;;;;6.12;100.00;100301.00;5047607;28;20025;-34
2023/03/03 02:01:25;;;;;;;47.65;22.40;;;;;;;6.08;100.00;100289.97;5048652;28;20037;-32
2023/03/03 02:03:52;;;;;;;44.10;23.02;;;;;;;6.12;100.00;100298.38;5050219;28;20036;-32
2023/03/03 02:06:20;;;;;;;43.30;21.63;;;;;;;6.20;100.00;100304.38;5055544;28;20497;-35
2023/03/03 02:09:01;;;;;;;45.10;22.17;;;;;;;6.07;100.00;100295.44;5055600;28;20045;-34
2023/03/03 02:11:30;;;;;;;45.60;22.77;;;;;;;5.99;100.00;100289.25;5055616;28;20045;-32
2023/03/03 02:13:55;;;;;;;42.47;22.50;;;;;;;6.14;100.00;100310.41;5055524;28;20039;-36
2023/03/03 02:16:21;;;;;;;44.45;23.27;;;;;;;6.02;100.00;100296.81;5055314;28;20032;-34
2023/03/03 02:18:46;;;;;;;44.03;22.77;;;;;;;6.22;100.00;100312.16;5055635;28;20035;-35
2023/03/03 02:21:16;;;;;;;45.42;22.15;;;;;;;6.14;100.00;100305.13;5055474;28;20066;-32
2023/03/03 02:23:41;;;;;;;47.15;24.33;;;;;;;6.28;100.00;100306.09;5055769;28;20025;-32
2023/03/03 02:26:27;;;;;;;46.08;22.98;;;;;;;6.32;100.00;100291.50;5055361;28;20074;-32
2023/03/03 02:28:53;;;;;;;42.95;22.17;;;;;;;6.31;100.00;100300.44;5055400;28;20052;-33
2023/03/03 02:31:22;;;;;;;46.47;23.08;;;;;;;6.20;100.00;100304.38;5055305;28;20444;-33
2023/03/03 02:33:52;;;;;;;42.67;23.15;;;;;;;6.17;100.00;100306.56;5055394;28;20032;-36
2023/03/03 02:36:26;;;;;;;40.95;20.85;;;;;;;6.21;100.00;100310.50;5055415;28;20033;-35
2023/03/03 02:39:17;;;;;;;39.90;21.45;;;;;;;6.01;100.00;100289.88;5055023;28;20412;-34
2023/03/03 02:42:05;;;;;;;43.97;22.05;;;;;;;6.21;100.00;100310.50;5055007;28;20131;-32
2023/03/03 02:44:32;;;;;;;47.42;23.48;;;;;;;6.07;100.00;100303.38;5055394;28;20029;-34
2023/03/03 02:46:58;;;;;;;43.67;21.95;;;;;;;6.19;100.00;100291.31;5054990;28;20025;-31
2023/03/03 02:49:26;;;;;;;44.08;22.50;;;;;;;6.24;100.00;100315.44;5054959;28;20040;-32
2023/03/03 02:51:53;;;;;;;45.92;23.52;;;;;;;6.17;100.00;100303.91;5053970;28;20075;-33
2023/03/03 02:54:21;;;;;;;48.83;24.00;;;;;;;6.22;100.00;100301.56;5055007;28;20175;-38
2023/03/03 02:56:50;;;;;;;44.58;22.95;;;;;;;6.19;100.00;100304.56;5055055;28;20029;-32
2023/03/03 02:59:16;;;;;;;48.65;23.85;;;;;;;6.16;100.00;100294.34;5054981;28;20119;-33
2023/03/03 03:01:42;;;;;;;40.58;22.13;;;;;;;6.01;100.00;100284.59;5055064;28;20037;-33
2023/03/03 03:04:10;;;;;;;45.47;22.35;;;;;;;6.18;100.00;100311.69;5054804;28;20033;-37
2023/03/03 03:06:35;;;;;;;40.70;21.92;;;;;;;6.02;100.00;100302.09;5055352;28;20032;-32
2023/03/03 03:09:02;;;;;;;42.17;21.88;;;;;;;6.22;100.00;100307.66;5055246;28;20036;-34
2023/03/03 03:11:27;;;;;;;42.83;22.15;;;;;;;6.18;100.00;100294.97;5053717;28;20444;-36
2023/03/03 03:13:55;;;;;;;44.88;22.73;;;;;;;6.25;100.00;100309.13;5053809;28;20078;-33
2023/03/03 03:16:20;;;;;;;46.55;23.83;;;;;;;6.06;100.00;100302.56;5051830;28;20036;-32
2023/03/03 03:18:49;;;;;;;50.35;24.02;;;;;;;6.09;100.00;100306.66;5051398;28;20037;-32
2023/03/03 03:21:15;;;;;;;45.83;23.50;;;;;;;6.16;100.00;100300.44;5050459;28;20067;-31
2023/03/03 03:23:41;;;;;;;44.88;21.50;;;;;;;6.06;100.00;100277.91;5051780;28;20028;-32
2023/03/03 03:26:07;;;;;;;44.08;23.02;;;;;;;6.11;100.00;100278.19;5051592;28;20479;-33
2023/03/03 03:28:33;;;;;;;41.80;21.67;;;;;;;6.09;100.00;100269.59;5051515;28;20036;-33
2023/03/03 03:30:58;;;;;;;44.13;22.00;;;;;;;6.07;100.00;100292.78;5051498;28;20112;-33
2023/03/03 03:33:26;;;;;;;45.63;22.17;;;;;;;6.10;100.00;100276.53;5051093;28;20021;-32
2023/03/03 03:35:54;;;;;;;57.10;27.70;;;;;;;6.11;100.00;100288.75;5050077;28;20128;-33
2023/03/03 03:38:20;;;;;;;157.60;89.70;;;;;;;6.12;100.00;100285.94;5051514;28;20473;-32
2023/03/03 03:40:46;;;;;;;64.88;35.05;;;;;;;6.02;100.00;100265.03;5051482;28;20040;-32
2023/03/03 03:43:12;;;;;;;55.63;29.05;;;;;;;6.18;100.00;100268.50;5051092;28;20053;-33
2023/03/03 03:45:41;;;;;;;55.60;27.77;;;;;;;6.39;100.00;100287.06;5050854;28;20033;-35
2023/03/03 03:48:07;;;;;;;46.85;25.15;;;;;;;6.34;100.00;100273.59;5051467;28;20040;-33
2023/03/03 03:50:32;;;;;;;47.10;24.48;;;;;;;6.43;100.00;100283.06;5051207;28;20033;-33
2023/03/03 03:52:58;;;;;;;46.75;23.27;;;;;;;6.29;100.00;100273.31;5051203;28;20031;-33
2023/03/03 03:55:23;;;;;;;45.17;22.00;;;;;;;6.26;100.00;100276.34;5050704;28;20063;-35
2023/03/03 03:57:49;;;;;;;42.83;23.67;;;;;;;6.19;100.00;100270.97;5050885;28;20024;-36
2023/03/03 04:00:15;;;;;;;42.88;23.63;;;;;;;6.17;100.00;100290.69;5050735;28;20029;-33
2023/03/03 04:02:40;;;;;;;45.03;24.13;;;;;;;6.16;100.00;100292.50;5051223;28;20117;-34
2023/03/03 04:05:06;;;;;;;53.47;24.48;;;;;;;6.33;100.00;100287.81;5051007;28;20116;-33
2023/03/03 04:07:32;;;;;;;49.95;23.30;;;;;;;6.31;100.00;100283.72;5049434;28;20033;-32
2023/03/03 04:09:58;;;;;;;44.38;24.00;;;;;;;6.17;100.00;100267.69;5050878;28;20033;-34
2023/03/03 04:12:23;;;;;;;44.95;22.38;;;;;;;6.20;100.00;100279.72;5050823;28;20053;-32
2023/03/03 04:14:49;;;;;;;45.45;22.92;;;;;;;6.30;100.00;100292.69;5050587;28;20111;-33
2023/03/03 04:17:18;;;;;;;40.92;21.48;;;;;;;6.24;100.00;100281.00;5050777;28;21160;-33
2023/03/03 04:19:44;;;;;;;43.55;23.33;;;;;;;6.16;100.00;100275.81;5050790;28;20032;-34
2023/03/03 04:22:12;;;;;;;42.78;22.42;;;;;;;6.24;100.00;100284.47;5050707;28;20056;-33
2023/03/03 04:24:38;;;;;;;46.33;22.20;;;;;;;6.18;100.00;100289.69;5050421;28;20035;-34
2023/03/03 04:27:06;;;;;;;43.53;23.55;;;;;;;6.37;100.00;100294.38;5050269;28;20029;-33
2023/03/03 04:29:32;;;;;;;42.00;22.98;;;;;;;6.35;100.00;100275.22;5048822;28;20036;-33
2023/03/03 04:31:57;;;;;;;47.28;24.52;;;;;;;6.22;100.00;100278.53;5050509;28;20025;-32
2023/03/03 04:34:23;;;;;;;47.05;24.25;;;;;;;6.20;100.00;100290.31;5050454;28;20028;-33
2023/03/03 04:36:48;;;;;;;41.95;23.05;;;;;;;6.26;100.00;100292.22;5032550;28;20033;-37
2023/03/03 04:39:13;;;;;;;42.50;24.77;;;;;;;6.02;100.00;100270.34;5048637;28;20112;-34
2023/03/03 04:41:39;;;;;;;43.90;21.55;;;;;;;6.15;100.00;100284.75;5050278;28;20045;-34
2023/03/03 04:44:04;;;;;;;43.08;21.42;;;;;;;6.16;100.00;100265.22;5050019;28;20029;-36
2023/03/03 04:46:30;;;;;;;47.05;23.40;;;;;;;6.33;100.00;100277.22;5050152;28;20039;-33
2023/03/03 04:48:55;;;;;;;42.53;21.15;;;;;;;6.16;100.00;100265.22;5050269;28;20044;-36
2023/03/03 04:51:21;;;;;;;44.35;22.67;;;;;;;6.02;100.00;100265.03;5048720;28;20032;-33
2023/03/03 04:53:47;;;;;;;44.15;23.42;;;;;;;6.16;100.00;100281.09;5049883;28;20147;-32
2023/03/03 04:56:12;;;;;;;38.78;22.58;;;;;;;6.12;100.00;100258.66;5048665;28;20075;-33
2023/03/03 04:58:38;;;;;;;41.85;22.42;;;;;;;6.26;100.00;100276.34;5049644;28;20025;-34
2023/03/03 05:01:04;;;;;;;43.20;21.85;;;;;;;6.21;100.00;100268.97;5050089;28;20035;-32
2023/03/03 05:03:29;;;;;;;45.92;24.13;;;;;;;6.34;100.00;100275.41;5049750;28;20544;-32
2023/03/03 05:05:54;;;;;;;40.58;21.27;;;;;;;6.39;100.00;100281.78;5049859;28;20056;-35
2023/03/03 05:08:20;;;;;;;44.05;21.58;;;;;;;6.46;100.00;100281.03;5049659;28;20025;-32
2023/03/03 05:10:46;;;;;;;60.67;30.92;;;;;;;6.33;100.00;100271.13;5049815;28;20605;-31
2023/03/03 05:13:14;;;;;;;198.68;96.53;;;;;;;6.53;100.00;100277.47;5049393;28;20500;-36
2023/03/03 05:15:39;;;;;;;403.25;205.88;;;;;;;6.42;100.00;100275.31;5050086;28;20032;-33
2023/03/03 05:18:07;;;;;;;460.42;241.63;;;;;;;6.49;100.00;100272.72;5049548;28;20052;-31
2023/03/03 05:20:32;;;;;;;481.33;281.55;;;;;;;6.39;100.00;100281.78;5049490;28;20535;-35
2023/03/03 05:23:00;;;;;;;211.38;122.43;;;;;;;6.27;100.00;100262.06;5049824;28;20029;-33
2023/03/03 05:25:25;;;;;;;138.27;92.13;;;;;;;6.35;100.00;100279.69;5049198;28;20515;-32
2023/03/03 05:27:51;;;;;;;61.58;36.05;;;;;;;6.54;100.00;100284.41;5049241;28;20049;-36
2023/03/03 05:30:16;;;;;;;61.95;34.90;;;;;;;6.58;100.00;100290.16;5049706;28;20039;-34
2023/03/03 05:32:42;;;;;;;65.03;35.70;;;;;;;6.44;100.00;100271.47;5049229;28;20033;-32
2023/03/03 05:35:08;;;;;;;48.53;26.25;;;;;;;6.38;100.00;100266.91;5047961;28;20477;-35
2023/03/03 05:37:33;;;;;;;44.30;25.70;;;;;;;6.48;100.00;100273.72;5049337;28;20448;-35
2023/03/03 05:39:59;;;;;;;48.40;25.30;;;;;;;6.54;100.00;100275.63;5048396;28;20048;-34
2023/03/03 05:42:24;;;;;;;46.25;23.40;;;;;;;6.48;100.00;100271.06;5049104;28;20080;-38
2023/03/03 05:44:50;;;;;;;41.85;24.23;;;;;;;6.50;100.00;100277.00;5049027;28;20029;-41
2023/03/03 05:47:15;;;;;;;40.72;23.17;;;;;;;6.56;100.00;100277.09;5049121;28;20040;-35
2023/03/03 05:49:40;;;;;;;43.00;23.17;;;;;;;6.63;100.00;100293.88;5049065;28;20437;-32
2023/03/03 05:52:07;;;;;;;42.30;22.60;;;;;;;6.58;100.00;100290.16;5049060;28;20033;-33
2023/03/03 05:54:33;;;;;;;44.80;24.92;;;;;;;6.77;100.00;100284.25;5048979;28;20071;-32
2023/03/03 05:56:59;;;;;;;54.42;26.65;;;;;;;6.77;100.00;100276.28;5048707;28;20068;-33
2023/03/03 05:59:24;;;;;;;46.78;26.02;;;;;;;6.63;100.00;100277.16;5048921;28;20477;-38
2023/03/03 06:01:50;;;;;;;49.08;26.27;;;;;;;6.62;100.00;100292.25;5048922;28;20029;-32
2023/03/03 06:04:16;;;;;;;114.10;64.10;;;;;;;6.39;100.00;100268.53;5048959;28;20036;-32
2023/03/03 06:06:41;;;;;;;81.50;47.60;;;;;;;6.57;100.00;100281.38;5049016;28;20029;-33
2023/03/03 06:09:06;;;;;;;76.22;42.88;;;;;;;6.64;100.00;100300.03;5047461;28;20590;-33
2023/03/03 06:11:32;;;;;;;53.08;30.88;;;;;;;6.60;100.00;100304.88;5048504;28;20029;-32
2023/03/03 06:13:57;;;;;;;50.83;27.40;;;;;;;6.71;100.00;100289.47;5048898;28;20086;-33
2023/03/03 06:16:23;;;;;;;48.67;25.23;;;;;;;6.66;100.00;100295.34;5049048;28;20029;-31
2023/03/03 06:18:48;;;;;;;50.45;28.30;;;;;;;6.69;100.00;100300.25;5048755;28;20063;-37
2023/03/03 06:21:14;;;;;;;53.05;28.52;;;;;;;6.64;100.00;100305.31;5048674;28;20452;-34
2023/03/03 06:23:40;;;;;;;55.70;27.85;;;;;;;6.51;100.00;100278.66;5048782;28;20033;-32
2023/03/03 06:26:05;;;;;;;57.88;30.15;;;;;;;6.57;100.00;100293.81;5048642;28;20493;-35
2023/03/03 06:28:31;;;;;;;67.30;36.45;;;;;;;6.60;100.00;100318.13;5048856;28;20102;-33
2023/03/03 06:30:57;;;;;;;59.85;31.63;;;;;;;6.50;100.00;100288.44;5048721;28;20041;-32
2023/03/03 06:33:22;;;;;;;47.50;26.30;;;;;;;6.78;100.00;100316.88;5048591;28;20102;-32
2023/03/03 06:35:52;;;;;;;52.13;27.25;;;;;;;6.75;100.00;100315.41;5048581;28;20032;-32
2023/03/03 06:38:18;;;;;;;53.15;27.08;;;;;;;6.75;100.00;100296.06;5047476;28;20114;-32
2023/03/03 06:40:44;;;;;;;59.35;27.02;;;;;;;6.90;100.00;100315.34;5048400;28;20390;-35
2023/03/03 06:43:10;;;;;;;53.67;25.38;;;;;;;6.77;100.00;100294.03;5048692;28;20045;-32
2023/03/03 06:45:35;;;;;;;47.75;25.42;;;;;;;6.83;100.00;100295.94;5046934;28;20029;-36
2023/03/03 06:48:01;;;;;;;47.10;24.90;;;;;;;6.81;100.00;100290.00;5048662;28;20025;-33
2023/03/03 06:50:26;;;;;;;51.15;25.38;;;;;;;6.94;100.00;100313.97;5050132;28;20037;-34
2023/03/03 06:53:01;;;;;;;48.78;25.38;;;;;;;6.90;100.00;100288.03;5052215;28;20076;-32
2023/03/03 06:55:27;;;;;;;43.60;23.55;;;;;;;6.98;100.00;100298.50;5051948;28;20470;-35
2023/03/03 06:57:54;;;;;;;45.30;23.17;;;;;;;7.04;100.00;100274.69;5051037;28;20029;-35
2023/03/03 07:00:25;;;;;;;41.30;23.23;;;;;;;7.17;100.00;100297.03;5052082;28;20060;-32
2023/03/03 07:03:06;;;;;;;43.17;23.75;;;;;;;7.20;100.00;100286.88;5051992;28;20037;-30
2023/03/03 07:05:33;;;;;;;42.78;21.88;;;;;;;7.12;100.00;100296.81;5051984;28;20037;-34
2023/03/03 07:07:59;;;;;;;39.97;22.23;;;;;;;7.06;100.00;100282.47;5052025;28;20029;-33
2023/03/03 07:10:27;;;;;;;41.78;22.85;;;;;;;7.14;100.00;100290.31;5051985;28;20519;-34
2023/03/03 07:12:53;;;;;;;43.15;21.38;;;;;;;7.28;100.00;100306.34;5052067;28;20029;-35
2023/03/03 07:15:33;;;;;;;36.70;20.50;;;;;;;7.46;100.00;100288.13;5051772;28;20036;-33
2023/03/03 07:17:59;;;;;;;43.75;22.90;;;;;;;7.37;100.00;100283.94;5051750;28;20032;-31
2023/03/03 07:20:32;;;;;;;41.67;23.25;;;;;;;7.23;100.00;100290.97;5051420;28;20029;-32
2023/03/03 07:22:57;;;;;;;36.28;20.80;;;;;;;7.27;100.00;100294.88;5051629;28;20047;-33
2023/03/03 07:25:31;;;;;;;40.75;20.35;;;;;;;7.37;100.00;100303.34;5050170;28;20029;-32
2023/03/03 07:28:00;;;;;;;45.42;26.27;;;;;;;7.37;100.00;100289.25;5051227;28;20832;-32
2023/03/03 07:30:27;;;;;;;36.75;19.30;;;;;;;7.46;100.00;100298.72;5051406;28;20029;-32
2023/03/03 07:32:56;;;;;;;30.67;18.35;;;;;;;7.61;100.00;100296.78;5051255;28;20132;-33
2023/03/03 07:35:27;;;;;;;;;;;;;;;7.71;100.00;100306.25;5051824;28;20029;-38
2023/03/03 07:37:56;;;;;;;34.75;18.05;;;;;;;7.42;100.00;100284.22;5051307;28;20014;-34
2023/03/03 07:40:35;;;;;;;34.47;18.73;;;;;;;7.42;100.00;100292.16;5051265;28;20059;-33
2023/03/03 07:43:26;;;;;;;35.38;20.15;;;;;;;7.43;100.00;100281.34;5050745;28;20057;-35
2023/03/03 07:45:52;;;;;;;36.63;20.70;;;;;;;7.77;99.20;100295.66;5051387;28;20028;-34
2023/03/03 07:48:28;;;;;;;28.60;17.33;;;;;;;7.83;96.53;100299.38;5049848;28;20047;-33
2023/03/03 07:50:54;;;;;;;27.95;15.73;;;;;;;7.76;97.47;100295.84;5051221;28;20063;-33
2023/03/03 07:53:28;;;;;;;24.83;15.45;;;;;;;7.80;98.51;100279.34;5050525;28;20029;-34
2023/03/03 07:55:54;;;;;;;25.83;15.70;;;;;;;7.94;97.48;100282.91;5050818;28;20087;-33
2023/03/03 07:58:34;;;;;;;31.90;18.42;;;;;;;8.19;97.78;100277.94;5050807;28;20029;-32
2023/03/03 08:01:34;;;;;;;27.10;15.18;;;;;;;8.28;95.31;100286.53;5050707;28;20417;-32
2023/03/03 08:04:06;;;;;;;31.55;17.02;;;;;;;8.31;94.91;100285.31;5050781;28;20489;-32
2023/03/03 08:06:34;;;;;;;26.05;15.23;;;;;;;8.08;94.11;100282.97;5051019;28;20027;-32
2023/03/03 08:09:08;;;;;;;29.73;14.80;;;;;;;7.98;93.72;100286.78;5050910;28;20072;-36
2023/03/03 08:11:34;;;;;;;31.30;15.80;;;;;;;8.03;96.29;100284.38;5050365;28;20029;-33
2023/03/03 08:14:00;;;;;;;33.10;17.48;;;;;;;8.04;95.68;100286.00;5050435;28;20037;-33
2023/03/03 08:16:47;;;;;;;84.75;29.25;;;;;;;8.30;98.86;100276.53;5049103;28;20083;-32
2023/03/03 08:19:17;;;;;;;39.08;19.80;;;;;;;8.26;97.46;100283.25;5050555;28;20068;-36
2023/03/03 08:21:42;;;;;;;20.95;13.15;;;;;;;8.16;94.22;100283.63;5048879;28;20036;-33
2023/03/03 08:24:08;;;;;;;28.58;16.35;;;;;;;7.96;94.52;100267.59;5050449;28;20029;-36
2023/03/03 08:26:33;;;;;;;48.80;28.05;;;;;;;8.11;94.23;100258.66;5050269;28;20044;-34
2023/03/03 08:29:00;;;;;;;57.83;37.00;;;;;;;8.08;94.16;100259.06;5050125;28;20039;-37
2023/03/03 08:31:26;;;;;;;34.40;21.58;;;;;;;8.17;93.59;100273.81;5049996;28;20542;-33
2023/03/03 08:33:54;;;;;;;27.40;14.43;;;;;;;8.21;92.02;100259.09;5050201;28;20112;-34
2023/03/03 08:36:22;;;;;;;22.20;12.80;;;;;;;8.17;90.53;100279.13;5050322;28;20021;-38
2023/03/03 08:38:48;;;;;;;33.75;14.70;;;;;;;8.27;92.70;100268.13;5048721;28;20025;-33
2023/03/03 08:41:15;;;;;;;39.80;18.23;;;;;;;8.27;91.65;100268.94;5050071;28;20028;-42
2023/03/03 08:43:44;;;;;;;25.95;13.88;;;;;;;8.31;93.11;100262.22;5049762;28;20040;-32
2023/03/03 08:46:10;;;;;;;24.35;13.00;;;;;;;8.28;90.46;100264.47;5050038;28;20024;-33
2023/03/03 08:48:36;;;;;;;34.28;17.50;;;;;;;8.28;91.88;100253.84;5049850;28;20462;-32
2023/03/03 08:51:01;;;;;;;21.80;13.18;;;;;;;8.31;92.64;100262.22;5048480;28;20489;-33
2023/03/03 08:53:27;;;;;;;21.85;13.40;;;;;;;8.33;90.73;100249.53;5049461;28;20428;-33
2023/03/03 08:55:55;;;;;;;22.83;13.27;;;;;;;8.40;89.50;100268.19;5049697;28;20029;-33
2023/03/03 08:58:21;;;;;;;23.35;13.38;;;;;;;8.17;91.08;100241.94;5049488;28;20029;-32
2023/03/03 09:00:46;;;;;;;23.75;12.32;;;;;;;8.19;89.90;100247.88;5049538;28;20055;-35
2023/03/03 09:03:12;;;;;;;20.17;12.75;;;;;;;8.16;91.77;100235.81;5049701;28;20029;-34
2023/03/03 09:05:38;;;;;;;22.98;14.25;;;;;;;8.52;91.65;100248.03;5049349;28;20036;-32
2023/03/03 09:08:05;;;;;;;24.42;13.77;;;;;;;8.51;91.60;100237.59;5049601;28;20063;-33
2023/03/03 09:10:31;;;;;;;24.02;14.98;;;;;;;8.37;92.70;100248.13;5049309;28;20039;-31
2023/03/03 09:13:00;;;;;;;25.15;14.63;;;;;;;8.43;93.90;100252.69;5049045;28;20028;-35
2023/03/03 09:15:34;;;;;;;23.52;14.15;;;;;;;8.44;91.90;100254.31;5048481;28;20028;-33
2023/03/03 09:18:23;;;;;;;28.40;18.35;;;;;;;8.49;92.35;100258.22;5049331;28;20476;-32
2023/03/03 09:20:51;;;;;;;24.30;14.57;;;;;;;8.45;92.96;100255.94;5048435;28;20048;-34
2023/03/03 09:23:36;;;;;;;26.65;16.67;;;;;;;8.26;94.59;100256.69;5048912;28;20025;-32
2023/03/03 09:26:25;;;;;;;25.05;14.50;;;;;;;8.11;95.30;100248.03;5049184;28;20041;-35
2023/03/03 09:28:53;;;;;;;28.42;17.13;;;;;;;8.01;95.62;100249.25;5049448;28;20397;-33
2023/03/03 09:31:26;;;;;;;28.77;16.15;;;;;;;7.99;96.85;100224.72;5048885;28;20112;-32
2023/03/03 09:33:56;;;;;;;29.23;15.93;;;;;;;8.27;95.38;100225.63;5049130;28;20025;-33
2023/03/03 09:36:28;;;;;;;29.27;15.45;;;;;;;8.07;96.43;100241.47;5049261;28;20032;-33
2023/03/03 09:38:56;;;;;;;26.75;15.45;;;;;;;8.07;98.41;100221.06;5048980;28;20029;-34
2023/03/03 09:41:37;;;;;;;27.45;16.70;;;;;;;8.23;97.84;100236.66;5047171;28;20068;-34
2023/03/03 09:44:20;;;;;;;29.65;15.57;;;;;;;8.14;97.54;100237.84;5048623;28;20484;-32
2023/03/03 09:47:01;;;;;;;29.08;16.20;;;;;;;8.02;96.78;100228.81;5048869;28;20417;-32
2023/03/03 09:49:32;;;;;;;28.38;15.88;;;;;;;8.07;96.65;100212.25;5048621;28;20037;-33
2023/03/03 09:52:18;;;;;;;26.88;16.38;;;;;;;8.39;95.26;100230.16;5038485;28;20144;-33
2023/03/03 09:55:11;;;;;;;26.00;15.35;;;;;;;8.46;96.35;100216.94;5039860;28;20043;-34
2023/03/03 09:57:57;;;;;;;26.02;14.20;;;;;;;8.54;94.18;100221.22;5034856;28;20059;-31
2023/03/03 10:00:32;;;;;;;24.83;14.23;;;;;;;8.31;94.07;100201.09;5039621;28;20035;-32
2023/03/03 10:03:16;;;;;;;26.15;14.13;;;;;;;8.33;93.84;100219.50;5039039;28;20029;-31
2023/03/03 10:05:57;;;;;;;25.05;13.95;;;;;;;8.31;94.25;100219.69;5039268;28;20460;-31
2023/03/03 10:08:47;;;;;;;26.33;14.32;;;;;;;8.54;94.03;100210.59;5039586;28;20024;-28
2023/03/03 10:11:42;;;;;;;22.27;14.88;;;;;;;8.57;92.34;100211.00;5038533;28;20025;-32
2023/03/03 10:14:37;;;;;;;23.65;14.13;;;;;;;8.59;93.47;100208.16;5028992;28;20068;-32
2023/03/03 10:17:16;;;;;;;29.30;15.25;;;;;;;8.62;93.40;100205.06;5028444;28;20041;-32
2023/03/03 10:20:04;;;;;;;24.83;14.68;;;;;;;8.64;92.98;100203.88;5028349;28;20036;-32
2023/03/03 10:22:47;;;;;;;25.35;14.52;;;;;;;8.45;92.57;100178.88;5028840;28;20060;-32
2023/03/03 10:25:18;;;;;;;39.55;19.48;;;;;;;8.58;95.68;100195.88;5029595;28;20111;-36
2023/03/03 10:28:02;;;;;;;21.98;11.75;;;;;;;8.62;92.25;100208.56;5032305;28;20486;-34
2023/03/03 10:30:41;;;;;;;27.48;15.18;;;;;;;8.30;94.00;100185.38;5032808;28;20919;-31
2023/03/03 10:33:11;;;;;;;28.17;14.80;;;;;;;8.28;96.91;100206.84;5032663;28;20091;-31
2023/03/03 10:35:42;;;;;;;24.77;13.90;;;;;;;8.36;95.14;100206.66;5032194;28;20501;-38
2023/03/03 10:38:35;;;;;;;28.85;14.55;;;;;;;8.24;93.95;100201.09;5032312;28;20029;-35
2023/03/03 10:41:26;;;;;;;31.20;17.58;;;;;;;8.20;95.06;100199.03;5032537;28;20041;-37
2023/03/03 10:44:15;;;;;;;24.25;15.38;;;;;;;8.19;96.45;100200.03;5038900;28;20051;-34
2023/03/03 10:47:07;;;;;;;27.08;16.77;;;;;;;8.15;94.67;100198.81;5051903;28;20021;-34
2023/03/03 10:49:45;;;;;;;25.33;15.63;;;;;;;8.36;95.24;100198.69;5050102;28;20116;-32
2023/03/03 10:52:24;;;;;;;27.35;16.65;;;;;;;8.08;96.07;100195.31;5052748;28;20067;-32
2023/03/03 10:55:08;;;;;;;22.85;13.00;;;;;;;7.95;94.23;100194.25;5051867;28;20409;-35
2023/03/03 10:58:07;;;;;;;23.98;13.15;;;;;;;7.99;96.39;100187.53;5052092;28;20033;-32
2023/03/03 11:00:41;;;;;;;30.92;17.25;;;;;;;8.03;95.41;100183.47;5051988;28;20529;-32
2023/03/03 11:03:25;;;;;;;27.92;14.85;;;;;;;8.32;95.96;100175.38;5051832;28;20037;-38
2023/03/03 11:05:57;;;;;;;23.90;13.45;;;;;;;8.03;93.32;100156.09;5051981;28;20036;-36
2023/03/03 11:08:40;;;;;;;28.50;15.70;;;;;;;8.07;92.83;100167.09;5051894;28;20025;-33
2023/03/03 11:11:08;;;;;;;25.23;14.88;;;;;;;8.09;93.21;100178.34;5051936;28;20440;-33
2023/03/03 11:14:08;;;;;;;23.40;14.60;;;;;;;8.03;94.47;100156.91;5051341;28;20451;-34
2023/03/03 11:16:39;;;;;;;23.40;13.27;;;;;;;8.19;91.98;100160.19;5051671;28;20477;-37
2023/03/03 11:19:22;;;;;;;26.05;13.65;;;;;;;8.30;93.77;100167.59;5051597;28;20025;-32
2023/03/03 11:21:47;;;;;;;24.33;13.90;;;;;;;8.29;93.69;100167.78;5051480;28;20037;-33
2023/03/03 11:24:26;;;;;;;25.02;13.20;;;;;;;8.47;93.48;100157.41;5051807;28;20044;-33
2023/03/03 11:27:21;;;;;;;25.48;15.63;;;;;;;8.50;91.23;100150.88;5051718;28;20037;-32